W K Kellogg Airport
KBTL : rendu visible

Aérodrome :











RETROUVEZ-NOUS SUR...

 
LOGIN :

S'inscrire | Disclaimer

   EN    FR    IT 

 









Légende :    VFR   VFR Marginal   IFR   IFR Intensif   IFR Très Intensif
Visi : 
Plafond : 
>= 8 km
>= 3000ft
5 à 8 km
1000 à 3000 ft
1500m à 5 km
500 à 1000 ft
800 à 1500m
200 à 500 ft
< 800m
< 200 ft
Symboles :   Orages  Brouillard  Fortes neiges  Fortes précipitations  Vent > 20 kt






- Altitude de l'aérodrome : 952 ft


KBTL - W K Kellogg

DERNIER METAR :
  • 241053Z AUTO 10009KT 7SM -RA BKN017 BKN023 OVC034 02/00 A2996 RMK AO2 SLP153 P0000 T00220000

METARs EXPIRÉS :
  • 240953Z AUTO 09009G19KT 10SM -RA BKN037 OVC050 02/00 A2997 RMK AO2 RAB00E15B34 SLP159 P0000 T00220000
  • 240853Z AUTO 09009KT 10SM FEW037 OVC060 02/M01 A3000 RMK AO2 RAB10E22 SLP166 P0000 60001 T00171006 56023

TAF KBTL
Valide du 24 à 10h jusqu'au 25 à 06h UTC


240930Z 2410/2506 09009KT P6SM FEW035 OVC060 WS020/14040KT
FM241100 09008KT 6SM BR VCSH BKN025 OVC050
FM241400 09010KT 5SM -RA BR OVC015
FM241600 08008KT 1 1/2SM -RA BR OVC005
FM250200 VRB04KT 1/2SM -RA FG OVC003



MET'MAP, la Météo Aéronautique d'un coup d'oeil ! - Copyright ORBIFLY Décembre 2007 - Disclaimer

ORBIFLY MET'MAP TEAM :

Programmation & Développement : Alexandra Zaïnal
Sur une idée originale de : Baudouin d'Aumeries
Assistance à la programmation : Marc-Olivier Méhu
Soutien technique & logistique : Manuel Goepfert

Contact : metmap@orbifly.com




SOURCES & CREDITS :

   NOAA       Earth
Advisory